Hauptseite
METAR-TAF:

METAR-TAF

Flughäfen :

Baden-Baden, Deutschland

Flughafen Karlsruhe/Baden-Baden

Breite: 48-46-43N, Länge: 008-04-47E, Höhe: 124 m

Beobachtung

Neuester Wetterbericht von vor 17 Minuten, um 11:50 UTC
Wind 4 kt aus Nord
Temperatur 21°C
Luftfeuchtigkeit 43%
Luftdruck 1024 hPa
Sichtweite 10 km oder mehr
keine Wolken unter 1500 m und keine Kumulonimbus oder Gewitterwolken

METAR: EDSB 211150Z 35004KT CAVOK 21/08 Q1024

Zeit: 14:07 (12:07 UTC)

Prognose

Neuester Wetterbericht von vor 1 Stunde und 7 Minuten, um 11:00 UTC
Gültige Prognose vom 21 um 12 UTC bis 22 um 12 UTC
Wind 3 kt aus unterschiedlichen Richtungen
Sichtweite 10 km oder mehr
keine Wolken unter 1500 m und keine Kumulonimbus oder Gewitterwolken

TAF: EDSB 211100Z 2112/2212 VRB03KT CAVOK

Wetterbeobachtungen und Prognosen von mehr als 4000 Flughäfen (METAR und TAF Bericht).

Die verfügbaren Stationen werden durch gelbe und rote Markierungen auf der Karte dargestellt.

Führen Sie die Maus auf sie, um den Namen der Station zu sehen.

Darauf klicken, um die Beobachtung von Wetterbeobachtungen und Prognosen zu sehen.

Um die Karte zu ändern : klicken Sie auf den grünen Tasten mit einem schwarzen Kreuz Zum Vergrößern, auf den grünen Button mit einem Gedankenstrich zu verkleinern, oder auf die grünen Pfeile für benachbarte Karten.


METAR-TAF: